Time;durP1;ratioP1;P1;durP2;ratioP2;P2;SDS_P1;SDS_P2;PMS_P1;PMS_P2;Temp;Humidity;BMP_temperature;BMP_pressure;BME280_temperature;BME280_humidity;BME280_pressure;Samples;Min_cycle;Max_cycle;Signal;HPM_P1;HPM_P2
2023/05/21 00:00:11;;;;;;;11.05;9.82;;;;;;;;;;4972811;28;20524;-78
2023/05/21 00:02:37;;;;;;;11.23;9.90;;;;;;;;;;4964617;28;20358;-78
2023/05/21 00:05:02;;;;;;;14.05;11.00;;;;;;;;;;4973328;28;20023;-79
2023/05/21 00:07:30;;;;;;;13.43;11.38;;;;;;;;;;4972495;28;20035;-80
2023/05/21 00:09:55;;;;;;;16.27;14.13;;;;;;;;;;4972845;28;20026;-79
2023/05/21 00:12:21;;;;;;;21.10;15.93;;;;;;;;;;4971022;28;20370;-80
2023/05/21 00:14:46;;;;;;;16.90;14.65;;;;;;;;;;4966365;28;20026;-78
2023/05/21 00:17:11;;;;;;;12.32;10.35;;;;;;;;;;4972959;28;20035;-77
2023/05/21 00:19:38;;;;;;;12.85;10.00;;;;;;;;;;4969744;28;20030;-78
2023/05/21 00:22:04;;;;;;;11.32;9.68;;;;;;;;;;4974482;28;20035;-77
2023/05/21 00:24:29;;;;;;;11.15;10.05;;;;;;;;;;4972033;28;20108;-80
2023/05/21 00:26:55;;;;;;;13.52;10.77;;;;;;;;;;4971863;28;20110;-78
2023/05/21 00:29:21;;;;;;;13.07;9.60;;;;;;;;;;4972279;28;20472;-80
2023/05/21 00:31:46;;;;;;;13.80;9.82;;;;;;;;;;4965988;28;20075;-81
2023/05/21 00:34:12;;;;;;;11.10;9.43;;;;;;;;;;4967201;28;20034;-82
2023/05/21 00:36:39;;;;;;;12.25;10.30;;;;;;;;;;4973350;28;20026;-78
2023/05/21 00:39:04;;;;;;;12.52;10.00;;;;;;;;;;4972645;28;20034;-79
2023/05/21 00:41:30;;;;;;;11.30;10.10;;;;;;;;;;4975945;28;20041;-79
2023/05/21 00:43:56;;;;;;;12.05;10.90;;;;;;;;;;4964343;28;20041;-78
2023/05/21 00:46:21;;;;;;;13.95;11.30;;;;;;;;;;4974753;28;20039;-81
2023/05/21 00:48:47;;;;;;;11.50;10.30;;;;;;;;;;4972146;28;20027;-82
2023/05/21 00:51:13;;;;;;;11.98;10.77;;;;;;;;;;4972424;28;20773;-81
2023/05/21 00:53:38;;;;;;;13.15;10.90;;;;;;;;;;4975091;28;20032;-82
2023/05/21 00:56:04;;;;;;;11.88;10.68;;;;;;;;;;4975191;28;20494;-80
2023/05/21 00:58:32;;;;;;;11.55;9.88;;;;;;;;;;4974066;28;20034;-81
2023/05/21 01:00:57;;;;;;;11.73;10.60;;;;;;;;;;4977990;28;20027;-81
2023/05/21 01:03:23;;;;;;;20.80;12.82;;;;;;;;;;4976432;28;20434;-80
2023/05/21 01:05:49;;;;;;;15.50;12.45;;;;;;;;;;4977160;28;20430;-81
2023/05/21 01:08:15;;;;;;;12.82;11.45;;;;;;;;;;4973208;28;20039;-78
2023/05/21 01:10:40;;;;;;;13.50;10.93;;;;;;;;;;4976380;28;20041;-77
2023/05/21 01:13:06;;;;;;;11.68;10.48;;;;;;;;;;4973749;28;20034;-76
2023/05/21 01:15:31;;;;;;;13.20;10.52;;;;;;;;;;4976302;28;20034;-78
2023/05/21 01:17:57;;;;;;;15.63;11.98;;;;;;;;;;4976245;28;20122;-77
2023/05/21 01:20:23;;;;;;;13.48;11.30;;;;;;;;;;4977095;28;20322;-78
2023/05/21 01:22:57;;;;;;;12.63;10.80;;;;;;;;;;4975817;28;20023;-77
2023/05/21 01:25:23;;;;;;;12.25;10.05;;;;;;;;;;4974640;28;20025;-78
2023/05/21 01:27:48;;;;;;;11.20;10.15;;;;;;;;;;4973959;28;20437;-78
2023/05/21 01:30:14;;;;;;;13.57;10.23;;;;;;;;;;4972662;28;20030;-77
2023/05/21 01:33:02;;;;;;;13.70;9.75;;;;;;;;;;4974659;28;20087;-76
2023/05/21 01:35:28;;;;;;;11.07;9.80;;;;;;;;;;4987102;28;20035;-76
2023/05/21 01:38:12;;;;;;;13.85;10.70;;;;;;;;;;4965360;28;20035;-76
2023/05/21 01:40:43;;;;;;;12.35;11.05;;;;;;;;;;4975135;28;20739;-77
2023/05/21 01:43:09;;;;;;;12.60;10.65;;;;;;;;;;4975189;28;20054;-75
2023/05/21 01:45:36;;;;;;;12.32;10.10;;;;;;;;;;4974285;28;20027;-76
2023/05/21 01:48:04;;;;;;;10.98;9.95;;;;;;;;;;4973558;28;20022;-75
2023/05/21 01:50:31;;;;;;;11.73;10.52;;;;;;;;;;4974649;28;20080;-76
2023/05/21 01:52:57;;;;;;;13.30;10.48;;;;;;;;;;4976558;28;20453;-77
2023/05/21 01:55:26;;;;;;;12.93;11.10;;;;;;;;;;4974752;28;20028;-77
2023/05/21 01:57:53;;;;;;;12.38;11.13;;;;;;;;;;4972646;28;20026;-76
2023/05/21 02:00:21;;;;;;;12.02;10.82;;;;;;;;;;4976468;28;20042;-77
2023/05/21 02:02:46;;;;;;;15.98;10.98;;;;;;;;;;4976467;28;20026;-76
2023/05/21 02:05:12;;;;;;;12.15;10.98;;;;;;;;;;4974920;28;20034;-75
2023/05/21 02:07:39;;;;;;;11.80;10.60;;;;;;;;;;4976035;28;20315;-78
2023/05/21 02:10:04;;;;;;;12.40;10.95;;;;;;;;;;4972908;28;20027;-78
2023/05/21 02:12:30;;;;;;;12.00;10.82;;;;;;;;;;4975989;28;20043;-77
2023/05/21 02:14:56;;;;;;;11.98;10.00;;;;;;;;;;4974327;28;20026;-78
2023/05/21 02:17:23;;;;;;;12.55;11.23;;;;;;;;;;4973389;28;20499;-77
2023/05/21 02:19:48;;;;;;;14.27;11.45;;;;;;;;;;4975491;28;20116;-78
2023/05/21 02:22:13;;;;;;;12.90;11.60;;;;;;;;;;4976687;28;20152;-78
2023/05/21 02:24:39;;;;;;;12.77;11.30;;;;;;;;;;4974703;28;20087;-79
2023/05/21 02:27:05;;;;;;;12.10;10.90;;;;;;;;;;4975010;28;20030;-78
2023/05/21 02:29:31;;;;;;;12.43;11.25;;;;;;;;;;4975278;28;20045;-78
2023/05/21 02:31:56;;;;;;;11.63;10.45;;;;;;;;;;4974946;28;20349;-77
2023/05/21 02:34:23;;;;;;;12.20;10.93;;;;;;;;;;4974430;28;20125;-77
2023/05/21 02:36:51;;;;;;;12.45;11.15;;;;;;;;;;4973795;28;20026;-76
2023/05/21 02:39:16;;;;;;;11.98;10.38;;;;;;;;;;4972451;28;20037;-78
2023/05/21 02:41:42;;;;;;;12.48;11.10;;;;;;;;;;4974987;28;20369;-78
2023/05/21 02:44:07;;;;;;;13.05;11.73;;;;;;;;;;4974377;28;20091;-78
2023/05/21 02:46:33;;;;;;;12.07;10.77;;;;;;;;;;4975521;28;20096;-77
2023/05/21 02:48:58;;;;;;;13.50;11.65;;;;;;;;;;4973293;28;20057;-78
2023/05/21 02:51:25;;;;;;;14.20;11.18;;;;;;;;;;4974284;28;20047;-77
2023/05/21 02:53:50;;;;;;;15.55;11.32;;;;;;;;;;4973561;28;20087;-77
2023/05/21 02:56:16;;;;;;;13.63;10.90;;;;;;;;;;4973686;28;20432;-77
2023/05/21 02:58:41;;;;;;;11.15;10.07;;;;;;;;;;4972965;28;20173;-79
2023/05/21 03:01:07;;;;;;;10.55;9.55;;;;;;;;;;4970941;28;20438;-78
2023/05/21 03:03:32;;;;;;;11.05;10.02;;;;;;;;;;4961781;28;20445;-79
2023/05/21 03:05:57;;;;;;;12.65;10.50;;;;;;;;;;4972075;28;20042;-77
2023/05/21 03:08:23;;;;;;;11.02;9.73;;;;;;;;;;4974226;28;20449;-79
2023/05/21 03:10:49;;;;;;;11.23;9.77;;;;;;;;;;4972061;28;20117;-79
2023/05/21 03:13:14;;;;;;;10.32;9.23;;;;;;;;;;4974108;28;20092;-77
2023/05/21 03:15:40;;;;;;;10.55;9.30;;;;;;;;;;4972543;28;20069;-80
2023/05/21 03:18:05;;;;;;;10.98;9.95;;;;;;;;;;4970960;28;20042;-79
2023/05/21 03:20:31;;;;;;;11.98;9.25;;;;;;;;;;4972427;28;20061;-80
2023/05/21 03:22:56;;;;;;;12.63;10.35;;;;;;;;;;4973027;28;20444;-77
2023/05/21 03:25:23;;;;;;;11.98;10.23;;;;;;;;;;4974525;28;20027;-78
2023/05/21 03:27:49;;;;;;;11.43;10.32;;;;;;;;;;4970277;28;20114;-77
2023/05/21 03:30:14;;;;;;;13.75;10.63;;;;;;;;;;4971698;28;20234;-80
2023/05/21 03:32:40;;;;;;;15.13;10.77;;;;;;;;;;4973252;28;20031;-79
2023/05/21 03:35:06;;;;;;;12.27;10.57;;;;;;;;;;4972110;28;20431;-77
2023/05/21 03:37:31;;;;;;;11.80;10.52;;;;;;;;;;4971104;28;20175;-76
2023/05/21 03:39:56;;;;;;;12.68;10.75;;;;;;;;;;4973186;28;20023;-78
2023/05/21 03:42:22;;;;;;;13.80;11.20;;;;;;;;;;4972600;28;20490;-77
2023/05/21 03:44:47;;;;;;;16.05;13.05;;;;;;;;;;4971035;28;20041;-77
2023/05/21 03:47:12;;;;;;;13.07;11.70;;;;;;;;;;4968379;28;20038;-79
2023/05/21 03:49:38;;;;;;;13.10;11.73;;;;;;;;;;4970118;28;20451;-80
2023/05/21 03:52:03;;;;;;;12.32;11.02;;;;;;;;;;4972310;28;20031;-78
2023/05/21 03:54:28;;;;;;;12.32;10.98;;;;;;;;;;4972641;28;20038;-77
2023/05/21 03:56:54;;;;;;;12.48;11.18;;;;;;;;;;4973347;28;20022;-79
2023/05/21 03:59:20;;;;;;;11.90;10.35;;;;;;;;;;4972603;28;20059;-76
2023/05/21 04:01:45;;;;;;;11.65;10.38;;;;;;;;;;4972505;28;20050;-76
2023/05/21 04:04:10;;;;;;;12.02;10.82;;;;;;;;;;4973664;28;20031;-76
2023/05/21 04:06:37;;;;;;;13.25;11.88;;;;;;;;;;4974122;28;20023;-78
2023/05/21 04:09:03;;;;;;;12.82;11.45;;;;;;;;;;4973726;28;20064;-76
2023/05/21 04:11:30;;;;;;;12.88;11.45;;;;;;;;;;4971762;28;20054;-77
2023/05/21 04:13:55;;;;;;;12.60;11.27;;;;;;;;;;4974875;28;20030;-77
2023/05/21 04:16:21;;;;;;;11.35;10.15;;;;;;;;;;4975038;28;20057;-77
2023/05/21 04:18:46;;;;;;;16.92;11.55;;;;;;;;;;4973785;28;20996;-76
2023/05/21 04:21:12;;;;;;;12.88;10.77;;;;;;;;;;4974332;28;20486;-77
2023/05/21 04:23:37;;;;;;;14.10;11.98;;;;;;;;;;4978654;28;20058;-76
2023/05/21 04:26:03;;;;;;;25.08;21.90;;;;;;;;;;4977543;28;20418;-74
2023/05/21 04:28:29;;;;;;;19.35;17.13;;;;;;;;;;4975936;28;20035;-78
2023/05/21 04:30:56;;;;;;;18.15;14.40;;;;;;;;;;4975835;28;20473;-77
2023/05/21 04:33:22;;;;;;;19.15;17.17;;;;;;;;;;4976177;28;20030;-78
2023/05/21 04:35:49;;;;;;;19.95;14.57;;;;;;;;;;4978252;28;20034;-77
2023/05/21 04:38:18;;;;;;;18.42;15.55;;;;;;;;;;4975938;28;20083;-77
2023/05/21 04:40:44;;;;;;;20.00;16.92;;;;;;;;;;4980310;28;20034;-76
2023/05/21 04:43:10;;;;;;;17.05;13.40;;;;;;;;;;4975653;28;20103;-76
2023/05/21 04:45:35;;;;;;;13.18;11.35;;;;;;;;;;4977351;28;20022;-77
2023/05/21 04:48:01;;;;;;;13.65;12.25;;;;;;;;;;4975643;28;20038;-77
2023/05/21 04:50:29;;;;;;;13.90;12.13;;;;;;;;;;4974442;28;20113;-78
2023/05/21 04:52:55;;;;;;;16.77;15.07;;;;;;;;;;4976426;28;20038;-77
2023/05/21 04:55:21;;;;;;;15.95;13.60;;;;;;;;;;4976600;28;20034;-77
2023/05/21 04:57:47;;;;;;;12.52;11.32;;;;;;;;;;4976743;28;20121;-77
2023/05/21 05:00:12;;;;;;;13.75;12.20;;;;;;;;;;4976042;28;20110;-76
2023/05/21 05:02:38;;;;;;;13.48;11.77;;;;;;;;;;4975306;28;20022;-76
2023/05/21 05:05:03;;;;;;;12.68;11.35;;;;;;;;;;4974279;28;20045;-77
2023/05/21 05:07:28;;;;;;;12.45;11.15;;;;;;;;;;4976972;28;20080;-76
2023/05/21 05:09:54;;;;;;;12.20;10.70;;;;;;;;;;4976186;28;20509;-77
2023/05/21 05:12:19;;;;;;;11.82;10.63;;;;;;;;;;4977564;28;20046;-76
2023/05/21 05:14:45;;;;;;;13.40;11.35;;;;;;;;;;4977040;28;20030;-77
2023/05/21 05:17:13;;;;;;;12.25;11.05;;;;;;;;;;4976114;28;20042;-77
2023/05/21 05:19:38;;;;;;;12.43;11.13;;;;;;;;;;4975664;28;20026;-76
2023/05/21 05:22:04;;;;;;;14.05;10.82;;;;;;;;;;4974345;28;20027;-76
2023/05/21 05:24:29;;;;;;;12.20;10.90;;;;;;;;;;4975110;28;20121;-76
2023/05/21 05:26:55;;;;;;;13.05;11.75;;;;;;;;;;4975938;28;20042;-77
2023/05/21 05:29:20;;;;;;;13.43;11.70;;;;;;;;;;4978236;28;20036;-79
2023/05/21 05:31:45;;;;;;;12.98;11.88;;;;;;;;;;4976993;28;20365;-77
2023/05/21 05:34:11;;;;;;;14.13;12.23;;;;;;;;;;4975192;28;20030;-75
2023/05/21 05:36:36;;;;;;;13.60;12.25;;;;;;;;;;4978063;28;20441;-75
2023/05/21 05:39:01;;;;;;;13.82;12.32;;;;;;;;;;4975737;28;20366;-76
2023/05/21 05:41:27;;;;;;;14.50;13.10;;;;;;;;;;4976198;28;20381;-76
2023/05/21 05:43:52;;;;;;;13.93;12.52;;;;;;;;;;4976353;28;20446;-77
2023/05/21 05:46:17;;;;;;;15.68;13.52;;;;;;;;;;4973331;28;20467;-77
2023/05/21 05:48:43;;;;;;;15.63;13.82;;;;;;;;;;4976087;28;20034;-77
2023/05/21 05:51:08;;;;;;;14.63;13.13;;;;;;;;;;4975135;28;20038;-76
2023/05/21 05:53:33;;;;;;;16.08;14.30;;;;;;;;;;4975046;28;20037;-77
2023/05/21 05:55:59;;;;;;;17.35;14.05;;;;;;;;;;4976132;28;20445;-75
2023/05/21 05:58:24;;;;;;;15.50;13.90;;;;;;;;;;4974517;28;20391;-75
2023/05/21 06:00:51;;;;;;;14.60;13.05;;;;;;;;;;4972827;28;20495;-77
2023/05/21 06:03:16;;;;;;;15.35;13.05;;;;;;;;;;4990036;28;20110;-77
2023/05/21 06:05:42;;;;;;;16.02;12.15;;;;;;;;;;4975517;28;20133;-78
2023/05/21 06:08:07;;;;;;;12.57;11.10;;;;;;;;;;4973861;28;20070;-77
2023/05/21 06:10:33;;;;;;;13.95;12.05;;;;;;;;;;4976968;28;20034;-77
2023/05/21 06:12:58;;;;;;;15.90;11.70;;;;;;;;;;4974316;28;20023;-78
2023/05/21 06:15:23;;;;;;;18.10;12.70;;;;;;;;;;4976407;28;20054;-76
2023/05/21 06:17:49;;;;;;;13.38;12.00;;;;;;;;;;4973817;28;20106;-78
2023/05/21 06:20:15;;;;;;;14.68;12.00;;;;;;;;;;4968766;28;20390;-76
2023/05/21 06:22:40;;;;;;;12.85;10.38;;;;;;;;;;4966792;28;20030;-76
2023/05/21 06:25:06;;;;;;;11.25;9.52;;;;;;;;;;4973934;28;20109;-77
2023/05/21 06:27:32;;;;;;;10.85;9.45;;;;;;;;;;4974707;28;20382;-77
2023/05/21 06:29:57;;;;;;;10.63;9.52;;;;;;;;;;4975952;28;20033;-77
2023/05/21 06:32:23;;;;;;;10.88;9.77;;;;;;;;;;4975108;28;20034;-78
2023/05/21 06:34:49;;;;;;;10.80;9.73;;;;;;;;;;4975632;28;20445;-77
2023/05/21 06:37:17;;;;;;;12.43;10.60;;;;;;;;;;4971578;28;20031;-77
2023/05/21 06:39:42;;;;;;;12.27;9.38;;;;;;;;;;4972970;28;20406;-77
2023/05/21 06:42:08;;;;;;;9.55;8.68;;;;;;;;;;4974994;28;20145;-76
2023/05/21 06:44:33;;;;;;;10.85;9.05;;;;;;;;;;4973845;28;20318;-76
2023/05/21 06:46:58;;;;;;;14.02;10.38;;;;;;;;;;4974799;28;20494;-77
2023/05/21 06:49:25;;;;;;;11.25;9.68;;;;;;;;;;4973723;28;20102;-76
2023/05/21 06:51:50;;;;;;;9.90;9.00;;;;;;;;;;4974282;28;20023;-75
2023/05/21 06:54:16;;;;;;;10.00;8.70;;;;;;;;;;4971363;28;20385;-76
2023/05/21 06:56:41;;;;;;;10.52;8.73;;;;;;;;;;4962863;28;20159;-76
2023/05/21 06:59:06;;;;;;;10.30;8.32;;;;;;;;;;4966980;28;20426;-74
2023/05/21 07:01:33;;;;;;;10.43;9.13;;;;;;;;;;4973756;28;20361;-76
2023/05/21 07:03:58;;;;;;;9.50;8.05;;;;;;;;;;4973736;28;20015;-77
2023/05/21 07:06:23;;;;;;;10.63;8.98;;;;;;;;;;4973930;28;20034;-76
2023/05/21 07:08:49;;;;;;;10.73;8.90;;;;;;;;;;4973219;28;20054;-76
2023/05/21 07:11:15;;;;;;;10.05;8.68;;;;;;;;;;4975614;28;20030;-75
2023/05/21 07:13:40;;;;;;;12.38;8.88;;;;;;;;;;4975358;28;20046;-76
2023/05/21 07:16:06;;;;;;;9.85;8.88;;;;;;;;;;4972230;28;20367;-75
2023/05/21 07:18:31;;;;;;;10.77;8.15;;;;;;;;;;4972349;28;20449;-75
2023/05/21 07:20:57;;;;;;;12.13;8.95;;;;;;;;;;4971964;28;20074;-77
2023/05/21 07:23:22;;;;;;;10.63;8.80;;;;;;;;;;4971061;28;20461;-77
2023/05/21 07:25:47;;;;;;;8.98;8.07;;;;;;;;;;4972463;28;20083;-78
2023/05/21 07:28:13;;;;;;;9.52;7.07;;;;;;;;;;4974592;28;20409;-78
2023/05/21 07:30:38;;;;;;;9.63;6.70;;;;;;;;;;4972886;28;20035;-77
2023/05/21 07:33:03;;;;;;;9.30;6.68;;;;;;;;;;4972949;28;20035;-75
2023/05/21 07:35:29;;;;;;;9.30;6.72;;;;;;;;;;4974581;28;20342;-77
2023/05/21 07:37:54;;;;;;;10.35;7.10;;;;;;;;;;4973352;28;20037;-77
2023/05/21 07:40:19;;;;;;;9.55;8.18;;;;;;;;;;4973263;28;20031;-75
2023/05/21 07:42:45;;;;;;;9.35;7.00;;;;;;;;;;4975367;28;20054;-75
2023/05/21 07:45:10;;;;;;;8.27;6.60;;;;;;;;;;4973732;28;20407;-77
2023/05/21 07:47:36;;;;;;;8.13;6.60;;;;;;;;;;4972935;28;20040;-77
2023/05/21 07:50:01;;;;;;;6.90;6.20;;;;;;;;;;4978237;28;20034;-76
2023/05/21 07:52:26;;;;;;;10.27;7.10;;;;;;;;;;4981725;28;20065;-76
2023/05/21 07:54:52;;;;;;;13.05;8.23;;;;;;;;;;4976736;28;20104;-80
2023/05/21 07:57:17;;;;;;;10.60;7.57;;;;;;;;;;4980097;28;20056;-80
2023/05/21 07:59:42;;;;;;;9.88;8.05;;;;;;;;;;4979794;28;20033;-77
2023/05/21 08:02:08;;;;;;;9.07;6.93;;;;;;;;;;4979327;28;20031;-77
2023/05/21 08:04:33;;;;;;;7.82;6.18;;;;;;;;;;4979638;28;20035;-79
2023/05/21 08:06:58;;;;;;;8.65;6.45;;;;;;;;;;4979215;28;20026;-75
2023/05/21 08:09:24;;;;;;;8.10;6.22;;;;;;;;;;4976771;28;20042;-76
2023/05/21 08:11:50;;;;;;;7.50;6.70;;;;;;;;;;4981678;28;20437;-77
2023/05/21 08:14:16;;;;;;;6.88;6.15;;;;;;;;;;4978549;28;20041;-78
2023/05/21 08:16:41;;;;;;;7.53;6.18;;;;;;;;;;4980010;28;20154;-77
2023/05/21 08:19:07;;;;;;;6.93;6.20;;;;;;;;;;4980408;28;20067;-82
2023/05/21 08:21:32;;;;;;;7.80;5.90;;;;;;;;;;4979246;28;21516;-79
2023/05/21 08:23:59;;;;;;;10.82;6.78;;;;;;;;;;4981631;28;20037;-77
2023/05/21 08:26:24;;;;;;;10.60;6.28;;;;;;;;;;4980013;28;20041;-78
2023/05/21 08:28:50;;;;;;;10.48;6.10;;;;;;;;;;4977868;28;20034;-77
2023/05/21 08:31:17;;;;;;;8.73;6.18;;;;;;;;;;4980679;28;20035;-78
2023/05/21 08:33:48;;;;;;;6.78;6.03;;;;;;;;;;4980021;28;20030;-77
2023/05/21 08:36:14;;;;;;;7.72;6.38;;;;;;;;;;4978803;28;20042;-76
2023/05/21 08:38:39;;;;;;;7.40;6.40;;;;;;;;;;4979651;28;20047;-74
2023/05/21 08:41:05;;;;;;;8.20;6.10;;;;;;;;;;4980352;28;20107;-75
2023/05/21 08:43:31;;;;;;;8.13;6.03;;;;;;;;;;4977656;28;20057;-78
2023/05/21 08:45:59;;;;;;;10.52;6.47;;;;;;;;;;4980862;28;20157;-78
2023/05/21 08:48:24;;;;;;;6.88;6.18;;;;;;;;;;4979871;28;20099;-79
2023/05/21 08:50:53;;;;;;;8.52;6.57;;;;;;;;;;4977240;28;20030;-79
2023/05/21 08:53:18;;;;;;;9.43;6.65;;;;;;;;;;4976963;28;20394;-75
2023/05/21 08:55:44;;;;;;;8.88;6.40;;;;;;;;;;4978593;28;20133;-77
2023/05/21 08:58:09;;;;;;;7.32;6.55;;;;;;;;;;4978768;28;20168;-77
2023/05/21 09:00:35;;;;;;;10.75;5.72;;;;;;;;;;4977503;28;20445;-76
2023/05/21 09:03:06;;;;;;;7.38;5.60;;;;;;;;;;4975354;28;20086;-77
2023/05/21 09:05:31;;;;;;;8.88;5.90;;;;;;;;;;4975744;28;20030;-77
2023/05/21 09:08:07;;;;;;;11.20;6.10;;;;;;;;;;4974057;28;20559;-76
2023/05/21 09:10:34;;;;;;;10.95;5.72;;;;;;;;;;4976490;28;20388;-78
2023/05/21 09:13:00;;;;;;;8.52;5.43;;;;;;;;;;4973167;28;20389;-77
2023/05/21 09:15:25;;;;;;;8.05;5.38;;;;;;;;;;4976430;28;20091;-76
2023/05/21 09:17:51;;;;;;;6.97;5.47;;;;;;;;;;4976677;28;20037;-76
2023/05/21 09:20:16;;;;;;;8.45;6.13;;;;;;;;;;4974556;28;20019;-78
2023/05/21 09:22:46;;;;;;;7.95;5.85;;;;;;;;;;4957770;28;20453;-76
2023/05/21 09:25:14;;;;;;;7.68;5.70;;;;;;;;;;4975066;28;20509;-77
2023/05/21 09:27:40;;;;;;;7.90;5.65;;;;;;;;;;4975325;28;20026;-77
2023/05/21 09:30:12;;;;;;;8.27;5.88;;;;;;;;;;4975862;28;20038;-79
2023/05/21 09:32:38;;;;;;;8.52;7.07;;;;;;;;;;4977162;28;20086;-75
2023/05/21 09:35:08;;;;;;;9.18;6.07;;;;;;;;;;4977041;28;20030;-77
2023/05/21 09:37:52;;;;;;;5.88;5.15;;;;;;;;;;4973365;28;20077;-77
2023/05/21 09:40:18;;;;;;;8.18;6.00;;;;;;;;;;4975650;28;20022;-78
2023/05/21 09:42:47;;;;;;;10.55;6.90;;;;;;;;;;4976376;28;20510;-79
2023/05/21 09:45:23;;;;;;;9.07;6.70;;;;;;;;;;4976551;28;20045;-75
2023/05/21 09:47:49;;;;;;;7.90;6.30;;;;;;;;;;4973662;28;20026;-77
2023/05/21 09:50:21;;;;;;;11.07;5.65;;;;;;;;;;4975699;28;20047;-76
2023/05/21 09:52:49;;;;;;;14.25;6.38;;;;;;;;;;4975153;28;20045;-76
2023/05/21 09:55:15;;;;;;;8.88;6.28;;;;;;;;;;4975658;28;20026;-78
2023/05/21 09:57:41;;;;;;;8.15;5.15;;;;;;;;;;4973980;28;20035;-76
2023/05/21 10:00:08;;;;;;;5.95;5.05;;;;;;;;;;4975921;28;20026;-77
2023/05/21 10:02:35;;;;;;;6.05;5.00;;;;;;;;;;4975588;28;20031;-76
2023/05/21 10:05:02;;;;;;;12.35;5.35;;;;;;;;;;4972969;28;20164;-77
2023/05/21 10:07:27;;;;;;;6.97;5.20;;;;;;;;;;4973359;28;20102;-75
2023/05/21 10:09:55;;;;;;;9.55;6.00;;;;;;;;;;4975419;28;20490;-74
2023/05/21 10:12:21;;;;;;;8.25;5.15;;;;;;;;;;4972411;28;20075;-77
2023/05/21 10:14:50;;;;;;;10.68;5.80;;;;;;;;;;4975433;28;20042;-76
2023/05/21 10:17:16;;;;;;;12.90;5.32;;;;;;;;;;4974183;28;20113;-76
2023/05/21 10:19:41;;;;;;;7.75;5.05;;;;;;;;;;4974802;28;20114;-76
2023/05/21 10:22:07;;;;;;;9.48;5.40;;;;;;;;;;4974076;28;20041;-76
2023/05/21 10:24:33;;;;;;;7.18;5.18;;;;;;;;;;4973384;28;20478;-77
2023/05/21 10:26:58;;;;;;;5.45;4.88;;;;;;;;;;4975050;28;20030;-78
2023/05/21 10:29:24;;;;;;;8.27;5.10;;;;;;;;;;4975158;28;20432;-76
2023/05/21 10:31:51;;;;;;;12.40;5.47;;;;;;;;;;4974557;28;20046;-77
2023/05/21 10:34:18;;;;;;;7.85;5.78;;;;;;;;;;4973828;28;20050;-74
2023/05/21 10:36:43;;;;;;;7.60;5.18;;;;;;;;;;4974579;28;20018;-76
2023/05/21 10:39:11;;;;;;;6.85;5.90;;;;;;;;;;4975820;28;20083;-78
2023/05/21 10:41:42;;;;;;;14.98;5.88;;;;;;;;;;4973864;28;20034;-76
2023/05/21 10:44:16;;;;;;;8.93;5.53;;;;;;;;;;4967927;28;20366;-77
2023/05/21 10:46:41;;;;;;;9.30;5.55;;;;;;;;;;4966649;28;20105;-77
2023/05/21 10:49:10;;;;;;;8.35;5.30;;;;;;;;;;4975458;28;20073;-76
2023/05/21 10:51:41;;;;;;;8.77;5.28;;;;;;;;;;4972297;28;20022;-76
2023/05/21 10:54:25;;;;;;;14.35;5.70;;;;;;;;;;4975837;28;20445;-77
2023/05/21 10:57:08;;;;;;;10.43;6.50;;;;;;;;;;4975860;28;20066;-77
2023/05/21 10:59:47;;;;;;;9.70;5.72;;;;;;;;;;4973871;28;20051;-75
2023/05/21 11:02:13;;;;;;;11.47;6.27;;;;;;;;;;4972567;28;20125;-76
2023/05/21 11:04:41;;;;;;;9.00;5.78;;;;;;;;;;4972722;28;20038;-77
2023/05/21 11:07:07;;;;;;;9.48;5.95;;;;;;;;;;4974847;28;20022;-77
2023/05/21 11:09:32;;;;;;;7.72;6.07;;;;;;;;;;4973722;28;20045;-78
2023/05/21 11:11:59;;;;;;;8.63;5.93;;;;;;;;;;4974735;28;20723;-77
2023/05/21 11:14:25;;;;;;;8.68;6.25;;;;;;;;;;4974392;28;20330;-77
2023/05/21 11:16:50;;;;;;;9.30;6.07;;;;;;;;;;4973389;28;20345;-77
2023/05/21 11:19:16;;;;;;;9.10;6.03;;;;;;;;;;4974787;28;20034;-78
2023/05/21 11:21:41;;;;;;;8.38;6.03;;;;;;;;;;4974639;28;20022;-79
2023/05/21 11:24:07;;;;;;;13.25;7.45;;;;;;;;;;4971347;28;20453;-78
2023/05/21 11:26:47;;;;;;;13.38;8.32;;;;;;;;;;4973231;28;20034;-78
2023/05/21 11:29:13;;;;;;;8.80;6.05;;;;;;;;;;4975073;28;20034;-77
2023/05/21 11:31:44;;;;;;;9.15;6.10;;;;;;;;;;4971219;28;20088;-77
2023/05/21 11:34:13;;;;;;;12.05;8.45;;;;;;;;;;4973776;28;20031;-77
2023/05/21 11:37:03;;;;;;;8.68;5.68;;;;;;;;;;4974295;28;20034;-77
2023/05/21 11:39:28;;;;;;;8.60;5.07;;;;;;;;;;5017022;28;20045;-77
2023/05/21 11:41:57;;;;;;;10.40;5.65;;;;;;;;;;4972670;28;20453;-76
2023/05/21 11:44:41;;;;;;;10.10;4.82;;;;;;;;;;4972544;28;20441;-76
2023/05/21 11:47:07;;;;;;;10.13;5.85;;;;;;;;;;4975020;28;20825;-77
2023/05/21 11:49:33;;;;;;;7.05;4.90;;;;;;;;;;4972390;28;20043;-77
2023/05/21 11:51:59;;;;;;;9.65;5.95;;;;;;;;;;4973093;28;20049;-78
2023/05/21 11:54:25;;;;;;;11.38;4.95;;;;;;;;;;4974714;28;20441;-77
2023/05/21 11:56:51;;;;;;;8.55;5.45;;;;;;;;;;4975308;28;20113;-77
2023/05/21 11:59:17;;;;;;;6.90;4.70;;;;;;;;;;4970572;28;20514;-75
2023/05/21 12:01:43;;;;;;;8.68;5.30;;;;;;;;;;4976806;28;20149;-75
2023/05/21 12:04:10;;;;;;;6.57;5.05;;;;;;;;;;4976496;28;20022;-76
2023/05/21 12:06:36;;;;;;;8.80;5.03;;;;;;;;;;4971939;28;20471;-74
2023/05/21 12:09:03;;;;;;;10.32;4.80;;;;;;;;;;4964543;28;20034;-75
2023/05/21 12:11:28;;;;;;;8.95;4.65;;;;;;;;;;4972055;28;20076;-78
2023/05/21 12:13:54;;;;;;;6.13;4.82;;;;;;;;;;4972528;28;20365;-77
2023/05/21 12:16:19;;;;;;;6.65;4.10;;;;;;;;;;4973129;28;20027;-78
2023/05/21 12:18:45;;;;;;;7.85;5.03;;;;;;;;;;4971274;28;20391;-76
2023/05/21 12:21:10;;;;;;;10.90;5.00;;;;;;;;;;4969832;28;20049;-76
2023/05/21 12:23:36;;;;;;;7.45;5.25;;;;;;;;;;4971975;28;20023;-76
2023/05/21 12:26:02;;;;;;;9.70;4.90;;;;;;;;;;4973227;28;20027;-76
2023/05/21 12:28:28;;;;;;;9.77;5.57;;;;;;;;;;4973251;28;20035;-77
2023/05/21 12:30:53;;;;;;;10.05;4.68;;;;;;;;;;4972455;28;20357;-77
2023/05/21 12:33:18;;;;;;;6.18;5.10;;;;;;;;;;4974056;28;20038;-76
2023/05/21 12:35:45;;;;;;;9.82;4.78;;;;;;;;;;4972279;28;20450;-77
2023/05/21 12:38:10;;;;;;;7.55;5.07;;;;;;;;;;4989926;28;20041;-76
2023/05/21 12:40:36;;;;;;;7.72;5.40;;;;;;;;;;4978840;28;20026;-76
2023/05/21 12:43:02;;;;;;;9.90;5.07;;;;;;;;;;4977110;28;20110;-76
2023/05/21 12:45:28;;;;;;;14.85;5.60;;;;;;;;;;4975582;28;20050;-76
2023/05/21 12:47:54;;;;;;;9.88;5.35;;;;;;;;;;4976423;28;20034;-78
2023/05/21 12:50:20;;;;;;;6.78;5.07;;;;;;;;;;4977289;28;20470;-76
2023/05/21 12:52:45;;;;;;;9.48;5.20;;;;;;;;;;4975768;28;20133;-75
2023/05/21 12:55:14;;;;;;;10.57;4.80;;;;;;;;;;4976842;28;20053;-79
2023/05/21 12:57:39;;;;;;;12.02;5.13;;;;;;;;;;4974482;28;20035;-78
2023/05/21 13:00:08;;;;;;;9.18;5.47;;;;;;;;;;4976619;28;20075;-76
2023/05/21 13:02:38;;;;;;;9.52;4.85;;;;;;;;;;4977216;28;20032;-77
2023/05/21 13:05:05;;;;;;;10.30;6.20;;;;;;;;;;4976904;28;20026;-76
2023/05/21 13:07:31;;;;;;;6.82;5.95;;;;;;;;;;4975420;28;20358;-74
2023/05/21 13:09:57;;;;;;;11.65;5.28;;;;;;;;;;4975431;28;20141;-75
2023/05/21 13:12:23;;;;;;;7.90;4.68;;;;;;;;;;4975735;28;20422;-78
2023/05/21 13:14:49;;;;;;;8.25;4.72;;;;;;;;;;4975161;28;20035;-77
2023/05/21 13:17:15;;;;;;;9.57;4.13;;;;;;;;;;4976421;28;20061;-75
2023/05/21 13:19:40;;;;;;;9.20;4.72;;;;;;;;;;4975955;28;20041;-74
2023/05/21 13:22:06;;;;;;;6.65;4.65;;;;;;;;;;4977597;28;20026;-75
2023/05/21 13:24:31;;;;;;;8.93;4.93;;;;;;;;;;4975613;28;20457;-76
2023/05/21 13:26:57;;;;;;;8.88;5.20;;;;;;;;;;4976263;28;20022;-77
2023/05/21 13:29:22;;;;;;;11.90;5.72;;;;;;;;;;4974399;28;20342;-76
2023/05/21 13:31:47;;;;;;;9.35;5.45;;;;;;;;;;4975331;28;20027;-78
2023/05/21 13:34:13;;;;;;;6.38;4.90;;;;;;;;;;4976660;28;20464;-78
2023/05/21 13:36:39;;;;;;;8.45;5.32;;;;;;;;;;4976485;28;20044;-77
2023/05/21 13:39:05;;;;;;;9.43;5.13;;;;;;;;;;4974443;28;20068;-79
2023/05/21 13:41:30;;;;;;;6.03;5.10;;;;;;;;;;4976882;28;20351;-77
2023/05/21 13:43:56;;;;;;;5.88;5.28;;;;;;;;;;4974782;28;20031;-77
2023/05/21 13:46:21;;;;;;;9.63;4.80;;;;;;;;;;4974615;28;20041;-76
2023/05/21 13:48:47;;;;;;;9.13;5.25;;;;;;;;;;4973570;28;20464;-77
2023/05/21 13:51:12;;;;;;;6.85;4.90;;;;;;;;;;4975184;28;20039;-79
2023/05/21 13:53:37;;;;;;;5.80;4.68;;;;;;;;;;4976208;28;20404;-76
2023/05/21 13:56:03;;;;;;;5.20;4.47;;;;;;;;;;4973640;28;20035;-80
2023/05/21 13:58:33;;;;;;;8.63;5.50;;;;;;;;;;4973563;28;20041;-76
2023/05/21 14:00:58;;;;;;;8.45;5.10;;;;;;;;;;4976439;28;20037;-76
2023/05/21 14:03:24;;;;;;;6.65;4.32;;;;;;;;;;4974923;28;20439;-78
2023/05/21 14:05:52;;;;;;;6.60;5.32;;;;;;;;;;4975028;28;20086;-77
2023/05/21 14:08:19;;;;;;;7.50;4.75;;;;;;;;;;4976337;28;20037;-78
2023/05/21 14:10:46;;;;;;;9.82;4.55;;;;;;;;;;4976336;28;20054;-76
2023/05/21 14:13:11;;;;;;;7.53;4.88;;;;;;;;;;4974258;28;20517;-76
2023/05/21 14:15:37;;;;;;;5.50;4.18;;;;;;;;;;4974062;28;20037;-79
2023/05/21 14:18:06;;;;;;;5.55;4.30;;;;;;;;;;4976628;28;20091;-75
2023/05/21 14:20:31;;;;;;;7.82;4.70;;;;;;;;;;4975210;28;20037;-77
2023/05/21 14:22:57;;;;;;;5.70;4.65;;;;;;;;;;4974863;28;20031;-76
2023/05/21 14:25:22;;;;;;;7.15;4.38;;;;;;;;;;4973345;28;20037;-76